sensor_id;sensor_type;location;lat;lon;timestamp;temperature;humidity
11497;DHT22;5805;51.542;7.230;2022-08-04T00:00:29;25.20;99.90
11497;DHT22;5805;51.542;7.230;2022-08-04T00:03:16;25.20;99.90
11497;DHT22;5805;51.542;7.230;2022-08-04T00:05:57;25.20;99.90
11497;DHT22;5805;51.542;7.230;2022-08-04T00:08:33;25.10;99.90
11497;DHT22;5805;51.542;7.230;2022-08-04T00:11:03;25.10;99.90
11497;DHT22;5805;51.542;7.230;2022-08-04T00:13:31;25.10;99.90
11497;DHT22;5805;51.542;7.230;2022-08-04T00:16:04;25.10;99.90
11497;DHT22;5805;51.542;7.230;2022-08-04T00:18:34;25.00;99.90
11497;DHT22;5805;51.542;7.230;2022-08-04T00:21:04;25.00;99.90
11497;DHT22;5805;51.542;7.230;2022-08-04T00:23:33;25.00;99.90
11497;DHT22;5805;51.542;7.230;2022-08-04T00:26:00;25.00;99.90
11497;DHT22;5805;51.542;7.230;2022-08-04T00:28:26;25.00;99.90
11497;DHT22;5805;51.542;7.230;2022-08-04T00:30:54;25.00;99.90
11497;DHT22;5805;51.542;7.230;2022-08-04T00:33:21;25.00;99.90
11497;DHT22;5805;51.542;7.230;2022-08-04T00:35:47;25.00;99.90
11497;DHT22;5805;51.542;7.230;2022-08-04T00:38:14;24.90;99.90
11497;DHT22;5805;51.542;7.230;2022-08-04T00:40:47;24.90;99.90
11497;DHT22;5805;51.542;7.230;2022-08-04T00:43:20;24.90;99.90
11497;DHT22;5805;51.542;7.230;2022-08-04T00:46:11;24.90;99.90
11497;DHT22;5805;51.542;7.230;2022-08-04T00:49:07;24.80;99.90
11497;DHT22;5805;51.542;7.230;2022-08-04T00:51:42;24.80;99.90
11497;DHT22;5805;51.542;7.230;2022-08-04T00:54:17;24.80;99.90
11497;DHT22;5805;51.542;7.230;2022-08-04T00:57:16;24.80;99.90
11497;DHT22;5805;51.542;7.230;2022-08-04T00:59:55;24.70;99.90
11497;DHT22;5805;51.542;7.230;2022-08-04T01:02:35;24.60;99.90
11497;DHT22;5805;51.542;7.230;2022-08-04T01:05:04;24.60;99.90
11497;DHT22;5805;51.542;7.230;2022-08-04T01:08:00;24.60;99.90
11497;DHT22;5805;51.542;7.230;2022-08-04T01:10:40;24.60;99.90
11497;DHT22;5805;51.542;7.230;2022-08-04T01:13:27;24.60;99.90
11497;DHT22;5805;51.542;7.230;2022-08-04T01:15:59;24.50;99.90
11497;DHT22;5805;51.542;7.230;2022-08-04T01:18:35;24.60;99.90
11497;DHT22;5805;51.542;7.230;2022-08-04T01:21:30;24.50;99.90
11497;DHT22;5805;51.542;7.230;2022-08-04T01:27:05;24.50;99.90
11497;DHT22;5805;51.542;7.230;2022-08-04T01:29:34;24.50;99.90
11497;DHT22;5805;51.542;7.230;2022-08-04T01:32:04;24.40;99.90
11497;DHT22;5805;51.542;7.230;2022-08-04T01:34:35;24.40;99.90
11497;DHT22;5805;51.542;7.230;2022-08-04T01:37:10;24.30;99.90
11497;DHT22;5805;51.542;7.230;2022-08-04T01:39:42;24.30;99.90
11497;DHT22;5805;51.542;7.230;2022-08-04T01:42:10;24.30;99.90
11497;DHT22;5805;51.542;7.230;2022-08-04T01:44:39;24.30;99.90
11497;DHT22;5805;51.542;7.230;2022-08-04T01:47:06;24.20;99.90
11497;DHT22;5805;51.542;7.230;2022-08-04T01:49:32;24.20;99.90
11497;DHT22;5805;51.542;7.230;2022-08-04T01:51:58;24.20;99.90
11497;DHT22;5805;51.542;7.230;2022-08-04T01:54:25;24.20;99.90
11497;DHT22;5805;51.542;7.230;2022-08-04T01:56:53;24.10;99.90
11497;DHT22;5805;51.542;7.230;2022-08-04T01:59:20;24.10;99.90
11497;DHT22;5805;51.542;7.230;2022-08-04T02:01:47;24.10;99.90
11497;DHT22;5805;51.542;7.230;2022-08-04T02:04:14;24.10;99.90
11497;DHT22;5805;51.542;7.230;2022-08-04T02:06:48;24.10;99.90
11497;DHT22;5805;51.542;7.230;2022-08-04T02:09:21;24.00;99.90
11497;DHT22;5805;51.542;7.230;2022-08-04T02:11:56;24.00;99.90
11497;DHT22;5805;51.542;7.230;2022-08-04T02:14:27;24.00;99.90
11497;DHT22;5805;51.542;7.230;2022-08-04T02:16:54;24.00;99.90
11497;DHT22;5805;51.542;7.230;2022-08-04T02:19:29;24.00;99.90
11497;DHT22;5805;51.542;7.230;2022-08-04T02:22:04;24.00;99.90
11497;DHT22;5805;51.542;7.230;2022-08-04T02:24:31;23.90;99.90
11497;DHT22;5805;51.542;7.230;2022-08-04T02:26:57;23.90;99.90
11497;DHT22;5805;51.542;7.230;2022-08-04T02:29:32;23.90;99.90
11497;DHT22;5805;51.542;7.230;2022-08-04T02:32:03;23.90;99.90
11497;DHT22;5805;51.542;7.230;2022-08-04T02:34:37;23.90;99.90
11497;DHT22;5805;51.542;7.230;2022-08-04T02:37:04;23.90;99.90
11497;DHT22;5805;51.542;7.230;2022-08-04T02:39:33;23.80;99.90
11497;DHT22;5805;51.542;7.230;2022-08-04T02:41:59;23.80;99.90
11497;DHT22;5805;51.542;7.230;2022-08-04T02:44:30;23.80;99.90
11497;DHT22;5805;51.542;7.230;2022-08-04T02:47:00;23.80;99.90
11497;DHT22;5805;51.542;7.230;2022-08-04T02:49:26;23.80;99.90
11497;DHT22;5805;51.542;7.230;2022-08-04T02:51:54;23.70;99.90
11497;DHT22;5805;51.542;7.230;2022-08-04T02:54:24;23.70;99.90
11497;DHT22;5805;51.542;7.230;2022-08-04T02:56:51;23.70;99.90
11497;DHT22;5805;51.542;7.230;2022-08-04T02:59:18;23.70;99.90
11497;DHT22;5805;51.542;7.230;2022-08-04T03:01:44;23.70;99.90
11497;DHT22;5805;51.542;7.230;2022-08-04T03:04:24;23.70;99.90
11497;DHT22;5805;51.542;7.230;2022-08-04T03:07:05;23.70;99.90
11497;DHT22;5805;51.542;7.230;2022-08-04T03:10:00;23.70;99.90
11497;DHT22;5805;51.542;7.230;2022-08-04T03:12:52;23.60;99.90
11497;DHT22;5805;51.542;7.230;2022-08-04T03:15:39;23.60;99.90
11497;DHT22;5805;51.542;7.230;2022-08-04T03:24:32;23.50;99.90
11497;DHT22;5805;51.542;7.230;2022-08-04T03:27:31;23.50;99.90
11497;DHT22;5805;51.542;7.230;2022-08-04T03:30:05;23.50;99.90
11497;DHT22;5805;51.542;7.230;2022-08-04T03:33:02;23.40;99.90
11497;DHT22;5805;51.542;7.230;2022-08-04T03:35:51;23.40;99.90
11497;DHT22;5805;51.542;7.230;2022-08-04T03:41:40;23.40;99.90
11497;DHT22;5805;51.542;7.230;2022-08-04T03:44:34;23.40;99.90
11497;DHT22;5805;51.542;7.230;2022-08-04T03:50:44;23.40;99.90
11497;DHT22;5805;51.542;7.230;2022-08-04T03:53:31;23.30;99.90
11497;DHT22;5805;51.542;7.230;2022-08-04T03:56:24;23.30;99.90
11497;DHT22;5805;51.542;7.230;2022-08-04T03:59:16;23.30;99.90
11497;DHT22;5805;51.542;7.230;2022-08-04T04:02:09;23.30;99.90
11497;DHT22;5805;51.542;7.230;2022-08-04T04:04:59;23.20;99.90
11497;DHT22;5805;51.542;7.230;2022-08-04T04:10:59;23.20;99.90
11497;DHT22;5805;51.542;7.230;2022-08-04T04:13:55;23.10;99.90
11497;DHT22;5805;51.542;7.230;2022-08-04T04:16:36;23.10;99.90
11497;DHT22;5805;51.542;7.230;2022-08-04T04:19:34;23.10;99.90
11497;DHT22;5805;51.542;7.230;2022-08-04T04:25:04;23.10;99.90
11497;DHT22;5805;51.542;7.230;2022-08-04T04:27:41;23.10;99.90
11497;DHT22;5805;51.542;7.230;2022-08-04T04:30:12;23.10;99.90
11497;DHT22;5805;51.542;7.230;2022-08-04T04:33:04;23.10;99.90
11497;DHT22;5805;51.542;7.230;2022-08-04T04:35:35;23.10;99.90
11497;DHT22;5805;51.542;7.230;2022-08-04T04:38:50;23.10;99.90
11497;DHT22;5805;51.542;7.230;2022-08-04T04:41:30;23.10;99.90
11497;DHT22;5805;51.542;7.230;2022-08-04T04:47:08;23.20;99.90
11497;DHT22;5805;51.542;7.230;2022-08-04T04:49:39;23.20;99.90
11497;DHT22;5805;51.542;7.230;2022-08-04T04:52:12;23.20;99.90
11497;DHT22;5805;51.542;7.230;2022-08-04T04:54:42;23.20;99.90
11497;DHT22;5805;51.542;7.230;2022-08-04T04:57:13;23.20;99.90
11497;DHT22;5805;51.542;7.230;2022-08-04T04:59:46;23.30;99.90
11497;DHT22;5805;51.542;7.230;2022-08-04T05:05:51;23.40;99.90
11497;DHT22;5805;51.542;7.230;2022-08-04T05:08:44;23.50;99.90
11497;DHT22;5805;51.542;7.230;2022-08-04T05:14:09;23.70;99.90
11497;DHT22;5805;51.542;7.230;2022-08-04T05:16:40;23.90;99.90
11497;DHT22;5805;51.542;7.230;2022-08-04T05:19:19;24.00;99.90
11497;DHT22;5805;51.542;7.230;2022-08-04T05:21:52;24.10;99.90
11497;DHT22;5805;51.542;7.230;2022-08-04T05:24:21;24.20;99.90
11497;DHT22;5805;51.542;7.230;2022-08-04T05:26:52;24.30;99.90
11497;DHT22;5805;51.542;7.230;2022-08-04T05:29:25;24.30;99.90
11497;DHT22;5805;51.542;7.230;2022-08-04T05:31:53;24.40;99.90
11497;DHT22;5805;51.542;7.230;2022-08-04T05:34:25;24.40;99.90
11497;DHT22;5805;51.542;7.230;2022-08-04T05:36:55;24.50;99.90
11497;DHT22;5805;51.542;7.230;2022-08-04T05:39:23;24.60;99.90
11497;DHT22;5805;51.542;7.230;2022-08-04T05:41:50;24.70;99.90
11497;DHT22;5805;51.542;7.230;2022-08-04T05:44:18;24.80;99.90
11497;DHT22;5805;51.542;7.230;2022-08-04T05:46:46;24.90;99.90
11497;DHT22;5805;51.542;7.230;2022-08-04T05:49:13;24.90;99.90
11497;DHT22;5805;51.542;7.230;2022-08-04T05:51:41;25.00;99.90
11497;DHT22;5805;51.542;7.230;2022-08-04T05:54:08;25.00;99.90
11497;DHT22;5805;51.542;7.230;2022-08-04T05:56:35;25.00;99.90
11497;DHT22;5805;51.542;7.230;2022-08-04T05:59:02;25.20;99.90
11497;DHT22;5805;51.542;7.230;2022-08-04T06:01:28;25.30;99.90
11497;DHT22;5805;51.542;7.230;2022-08-04T06:03:56;25.40;99.90
11497;DHT22;5805;51.542;7.230;2022-08-04T06:06:24;25.50;99.90
11497;DHT22;5805;51.542;7.230;2022-08-04T06:08:51;25.70;99.90
11497;DHT22;5805;51.542;7.230;2022-08-04T06:11:18;25.70;99.90
11497;DHT22;5805;51.542;7.230;2022-08-04T06:13:52;25.70;99.90
11497;DHT22;5805;51.542;7.230;2022-08-04T06:16:21;25.70;99.90
11497;DHT22;5805;51.542;7.230;2022-08-04T06:18:48;25.70;99.90
11497;DHT22;5805;51.542;7.230;2022-08-04T06:21:16;25.60;99.90
11497;DHT22;5805;51.542;7.230;2022-08-04T06:23:44;25.60;99.90
11497;DHT22;5805;51.542;7.230;2022-08-04T06:26:12;25.60;99.90
11497;DHT22;5805;51.542;7.230;2022-08-04T06:28:40;25.60;99.90
11497;DHT22;5805;51.542;7.230;2022-08-04T06:31:07;25.60;99.90
11497;DHT22;5805;51.542;7.230;2022-08-04T06:33:33;25.60;99.90
11497;DHT22;5805;51.542;7.230;2022-08-04T06:36:00;25.70;99.90
11497;DHT22;5805;51.542;7.230;2022-08-04T06:38:28;25.70;99.90
11497;DHT22;5805;51.542;7.230;2022-08-04T06:40:55;25.80;99.90
11497;DHT22;5805;51.542;7.230;2022-08-04T06:43:23;25.80;99.90
11497;DHT22;5805;51.542;7.230;2022-08-04T06:45:50;25.90;99.90
11497;DHT22;5805;51.542;7.230;2022-08-04T06:48:17;26.00;99.90
11497;DHT22;5805;51.542;7.230;2022-08-04T06:50:45;26.00;99.90
11497;DHT22;5805;51.542;7.230;2022-08-04T06:53:12;26.10;99.90
11497;DHT22;5805;51.542;7.230;2022-08-04T06:55:40;26.20;99.90
11497;DHT22;5805;51.542;7.230;2022-08-04T06:58:08;26.20;99.90
11497;DHT22;5805;51.542;7.230;2022-08-04T07:00:38;26.30;99.10
11497;DHT22;5805;51.542;7.230;2022-08-04T07:03:07;26.40;99.50
11497;DHT22;5805;51.542;7.230;2022-08-04T07:05:33;26.50;99.60
11497;DHT22;5805;51.542;7.230;2022-08-04T07:07:59;26.60;98.90
11497;DHT22;5805;51.542;7.230;2022-08-04T07:10:26;26.60;97.90
11497;DHT22;5805;51.542;7.230;2022-08-04T07:12:52;26.70;97.70
11497;DHT22;5805;51.542;7.230;2022-08-04T07:15:19;26.90;99.90
11497;DHT22;5805;51.542;7.230;2022-08-04T07:17:48;27.10;99.90
11497;DHT22;5805;51.542;7.230;2022-08-04T07:20:15;26.90;97.90
11497;DHT22;5805;51.542;7.230;2022-08-04T07:22:42;26.80;96.60
11497;DHT22;5805;51.542;7.230;2022-08-04T07:25:09;26.90;96.30
11497;DHT22;5805;51.542;7.230;2022-08-04T07:27:35;26.90;96.00
11497;DHT22;5805;51.542;7.230;2022-08-04T07:30:01;27.00;96.10
11497;DHT22;5805;51.542;7.230;2022-08-04T07:32:27;27.00;95.80
11497;DHT22;5805;51.542;7.230;2022-08-04T07:34:55;27.10;95.30
11497;DHT22;5805;51.542;7.230;2022-08-04T07:37:21;27.20;95.20
11497;DHT22;5805;51.542;7.230;2022-08-04T07:39:47;27.20;94.70
11497;DHT22;5805;51.542;7.230;2022-08-04T07:42:12;27.30;94.60
11497;DHT22;5805;51.542;7.230;2022-08-04T07:44:38;27.30;94.30
11497;DHT22;5805;51.542;7.230;2022-08-04T07:47:06;27.40;93.90
11497;DHT22;5805;51.542;7.230;2022-08-04T07:49:32;27.40;93.50
11497;DHT22;5805;51.542;7.230;2022-08-04T07:51:59;27.50;93.50
11497;DHT22;5805;51.542;7.230;2022-08-04T07:54:26;27.60;92.90
11497;DHT22;5805;51.542;7.230;2022-08-04T07:56:52;27.70;92.30
11497;DHT22;5805;51.542;7.230;2022-08-04T07:59:18;27.80;91.60
11497;DHT22;5805;51.542;7.230;2022-08-04T08:01:45;27.90;91.10
11497;DHT22;5805;51.542;7.230;2022-08-04T08:04:11;28.00;91.00
11497;DHT22;5805;51.542;7.230;2022-08-04T08:06:38;28.20;90.60
11497;DHT22;5805;51.542;7.230;2022-08-04T08:09:09;28.30;90.50
11497;DHT22;5805;51.542;7.230;2022-08-04T08:11:35;28.50;90.00
11497;DHT22;5805;51.542;7.230;2022-08-04T08:14:01;28.60;90.20
11497;DHT22;5805;51.542;7.230;2022-08-04T08:16:26;28.90;89.10
11497;DHT22;5805;51.542;7.230;2022-08-04T08:18:52;29.10;89.30
11497;DHT22;5805;51.542;7.230;2022-08-04T08:21:19;29.40;90.60
11497;DHT22;5805;51.542;7.230;2022-08-04T08:23:45;29.80;91.50
11497;DHT22;5805;51.542;7.230;2022-08-04T08:26:12;30.70;90.00
11497;DHT22;5805;51.542;7.230;2022-08-04T08:28:38;32.50;83.60
11497;DHT22;5805;51.542;7.230;2022-08-04T08:31:04;34.70;72.10
11497;DHT22;5805;51.542;7.230;2022-08-04T08:33:30;37.30;60.90
11497;DHT22;5805;51.542;7.230;2022-08-04T08:36:00;39.70;53.60
11497;DHT22;5805;51.542;7.230;2022-08-04T08:38:48;41.70;46.90
11497;DHT22;5805;51.542;7.230;2022-08-04T08:44:49;44.30;37.10
11497;DHT22;5805;51.542;7.230;2022-08-04T08:47:38;44.20;35.20
11497;DHT22;5805;51.542;7.230;2022-08-04T08:53:26;41.70;38.00
11497;DHT22;5805;51.542;7.230;2022-08-04T08:56:11;40.50;39.70
11497;DHT22;5805;51.542;7.230;2022-08-04T08:58:52;39.40;40.50
11497;DHT22;5805;51.542;7.230;2022-08-04T09:01:39;38.50;41.10
11497;DHT22;5805;51.542;7.230;2022-08-04T09:07:27;37.10;43.10
11497;DHT22;5805;51.542;7.230;2022-08-04T09:10:04;36.70;43.40
11497;DHT22;5805;51.542;7.230;2022-08-04T09:12:34;36.60;44.00
11497;DHT22;5805;51.542;7.230;2022-08-04T09:15:10;36.40;44.00
11497;DHT22;5805;51.542;7.230;2022-08-04T09:17:42;36.20;44.30
11497;DHT22;5805;51.542;7.230;2022-08-04T09:20:15;36.10;44.50
11497;DHT22;5805;51.542;7.230;2022-08-04T09:22:48;36.00;44.30
11497;DHT22;5805;51.542;7.230;2022-08-04T09:25:20;35.80;44.90
11497;DHT22;5805;51.542;7.230;2022-08-04T09:27:51;35.60;45.00
11497;DHT22;5805;51.542;7.230;2022-08-04T09:30:22;35.40;46.10
11497;DHT22;5805;51.542;7.230;2022-08-04T09:32:59;35.20;45.80
11497;DHT22;5805;51.542;7.230;2022-08-04T09:35:36;35.00;46.90
11497;DHT22;5805;51.542;7.230;2022-08-04T09:38:09;35.10;47.20
11497;DHT22;5805;51.542;7.230;2022-08-04T09:40:46;35.30;46.50
11497;DHT22;5805;51.542;7.230;2022-08-04T09:43:26;35.40;45.70
11497;DHT22;5805;51.542;7.230;2022-08-04T09:46:00;35.50;45.50
11497;DHT22;5805;51.542;7.230;2022-08-04T09:48:33;35.70;45.30
11497;DHT22;5805;51.542;7.230;2022-08-04T09:51:02;35.90;45.00
11497;DHT22;5805;51.542;7.230;2022-08-04T09:53:41;36.00;44.80
11497;DHT22;5805;51.542;7.230;2022-08-04T09:56:17;36.00;44.30
11497;DHT22;5805;51.542;7.230;2022-08-04T09:58:51;36.20;44.70
11497;DHT22;5805;51.542;7.230;2022-08-04T10:01:21;36.30;44.30
11497;DHT22;5805;51.542;7.230;2022-08-04T10:03:50;36.40;44.60
11497;DHT22;5805;51.542;7.230;2022-08-04T10:06:33;36.40;44.40
11497;DHT22;5805;51.542;7.230;2022-08-04T10:09:13;36.40;44.20
11497;DHT22;5805;51.542;7.230;2022-08-04T10:11:52;36.50;44.20
11497;DHT22;5805;51.542;7.230;2022-08-04T10:14:34;36.60;44.10
11497;DHT22;5805;51.542;7.230;2022-08-04T10:17:11;36.70;43.80
11497;DHT22;5805;51.542;7.230;2022-08-04T10:19:40;36.80;43.30
11497;DHT22;5805;51.542;7.230;2022-08-04T10:22:13;36.70;42.70
11497;DHT22;5805;51.542;7.230;2022-08-04T10:24:50;36.40;42.60
11497;DHT22;5805;51.542;7.230;2022-08-04T10:27:23;36.30;43.10
11497;DHT22;5805;51.542;7.230;2022-08-04T10:29:51;36.20;43.90
11497;DHT22;5805;51.542;7.230;2022-08-04T10:32:23;36.20;43.40
11497;DHT22;5805;51.542;7.230;2022-08-04T10:35:00;36.30;43.30
11497;DHT22;5805;51.542;7.230;2022-08-04T10:37:28;36.30;43.40
11497;DHT22;5805;51.542;7.230;2022-08-04T10:40:02;36.40;43.50
11497;DHT22;5805;51.542;7.230;2022-08-04T10:42:30;36.40;43.40
11497;DHT22;5805;51.542;7.230;2022-08-04T10:45:07;36.40;44.00
11497;DHT22;5805;51.542;7.230;2022-08-04T10:47:44;36.60;43.40
11497;DHT22;5805;51.542;7.230;2022-08-04T10:50:16;36.70;43.60
11497;DHT22;5805;51.542;7.230;2022-08-04T10:52:47;36.80;43.30
11497;DHT22;5805;51.542;7.230;2022-08-04T10:55:22;37.00;43.40
11497;DHT22;5805;51.542;7.230;2022-08-04T10:57:53;37.10;42.70
11497;DHT22;5805;51.542;7.230;2022-08-04T11:00:23;37.10;43.00
11497;DHT22;5805;51.542;7.230;2022-08-04T11:02:54;37.10;43.10
11497;DHT22;5805;51.542;7.230;2022-08-04T11:05:28;37.10;43.10
11497;DHT22;5805;51.542;7.230;2022-08-04T11:07:59;37.00;42.70
11497;DHT22;5805;51.542;7.230;2022-08-04T11:10:29;36.60;42.40
11497;DHT22;5805;51.542;7.230;2022-08-04T11:13:05;36.30;42.90
11497;DHT22;5805;51.542;7.230;2022-08-04T11:15:35;36.00;43.60
11497;DHT22;5805;51.542;7.230;2022-08-04T11:18:07;35.80;43.70
11497;DHT22;5805;51.542;7.230;2022-08-04T11:20:37;35.50;44.00
11497;DHT22;5805;51.542;7.230;2022-08-04T11:23:07;35.30;44.20
11497;DHT22;5805;51.542;7.230;2022-08-04T11:25:40;35.10;44.40
11497;DHT22;5805;51.542;7.230;2022-08-04T11:28:13;35.10;44.80
11497;DHT22;5805;51.542;7.230;2022-08-04T11:30:50;35.10;45.10
11497;DHT22;5805;51.542;7.230;2022-08-04T11:33:29;35.30;45.00
11497;DHT22;5805;51.542;7.230;2022-08-04T11:36:02;35.40;44.90
11497;DHT22;5805;51.542;7.230;2022-08-04T11:38:36;35.50;44.90
11497;DHT22;5805;51.542;7.230;2022-08-04T11:41:08;35.50;45.10
11497;DHT22;5805;51.542;7.230;2022-08-04T11:43:36;35.40;44.90
11497;DHT22;5805;51.542;7.230;2022-08-04T11:46:08;35.30;45.90
11497;DHT22;5805;51.542;7.230;2022-08-04T11:48:44;35.30;45.30
11497;DHT22;5805;51.542;7.230;2022-08-04T11:51:12;35.30;45.10
11497;DHT22;5805;51.542;7.230;2022-08-04T11:53:39;35.40;45.20
11497;DHT22;5805;51.542;7.230;2022-08-04T11:56:10;35.60;45.40
11497;DHT22;5805;51.542;7.230;2022-08-04T11:58:37;35.70;45.20
11497;DHT22;5805;51.542;7.230;2022-08-04T12:01:09;35.80;45.00
11497;DHT22;5805;51.542;7.230;2022-08-04T12:03:45;35.80;45.00
11497;DHT22;5805;51.542;7.230;2022-08-04T12:06:18;35.90;45.20
11497;DHT22;5805;51.542;7.230;2022-08-04T12:08:57;36.10;46.10
11497;DHT22;5805;51.542;7.230;2022-08-04T12:11:47;36.20;45.60
11497;DHT22;5805;51.542;7.230;2022-08-04T12:14:25;36.20;44.90
11497;DHT22;5805;51.542;7.230;2022-08-04T12:16:57;36.10;44.20
11497;DHT22;5805;51.542;7.230;2022-08-04T12:19:29;36.00;44.30
11497;DHT22;5805;51.542;7.230;2022-08-04T12:21:57;35.90;44.70
11497;DHT22;5805;51.542;7.230;2022-08-04T12:24:27;35.80;45.50
11497;DHT22;5805;51.542;7.230;2022-08-04T12:26:58;35.70;46.30
11497;DHT22;5805;51.542;7.230;2022-08-04T12:29:31;35.50;46.80
11497;DHT22;5805;51.542;7.230;2022-08-04T12:32:03;35.20;47.40
11497;DHT22;5805;51.542;7.230;2022-08-04T12:34:36;35.00;47.80
11497;DHT22;5805;51.542;7.230;2022-08-04T12:37:08;34.80;48.30
11497;DHT22;5805;51.542;7.230;2022-08-04T12:39:39;34.70;48.40
11497;DHT22;5805;51.542;7.230;2022-08-04T12:42:12;34.70;48.50
11497;DHT22;5805;51.542;7.230;2022-08-04T12:44:40;34.60;49.00
11497;DHT22;5805;51.542;7.230;2022-08-04T12:47:08;34.50;48.50
11497;DHT22;5805;51.542;7.230;2022-08-04T12:49:38;34.40;48.90
11497;DHT22;5805;51.542;7.230;2022-08-04T12:52:07;34.40;49.40
11497;DHT22;5805;51.542;7.230;2022-08-04T12:54:35;34.40;49.80
11497;DHT22;5805;51.542;7.230;2022-08-04T12:57:03;34.50;50.20
11497;DHT22;5805;51.542;7.230;2022-08-04T12:59:37;34.60;50.20
11497;DHT22;5805;51.542;7.230;2022-08-04T13:02:03;34.70;50.10
11497;DHT22;5805;51.542;7.230;2022-08-04T13:04:30;34.80;49.90
11497;DHT22;5805;51.542;7.230;2022-08-04T13:07:00;34.80;50.10
11497;DHT22;5805;51.542;7.230;2022-08-04T13:09:30;34.80;50.40
11497;DHT22;5805;51.542;7.230;2022-08-04T13:12:01;34.70;50.20
11497;DHT22;5805;51.542;7.230;2022-08-04T13:14:30;34.50;50.50
11497;DHT22;5805;51.542;7.230;2022-08-04T13:16:58;34.40;51.10
11497;DHT22;5805;51.542;7.230;2022-08-04T13:19:24;34.40;51.10
11497;DHT22;5805;51.542;7.230;2022-08-04T13:21:51;34.40;51.40
11497;DHT22;5805;51.542;7.230;2022-08-04T13:24:19;34.40;51.60
11497;DHT22;5805;51.542;7.230;2022-08-04T13:26:54;34.50;51.90
11497;DHT22;5805;51.542;7.230;2022-08-04T13:29:30;34.60;51.90
11497;DHT22;5805;51.542;7.230;2022-08-04T13:31:59;34.60;52.10
11497;DHT22;5805;51.542;7.230;2022-08-04T13:34:26;34.70;52.70
11497;DHT22;5805;51.542;7.230;2022-08-04T13:36:54;34.70;53.00
11497;DHT22;5805;51.542;7.230;2022-08-04T13:39:22;34.70;53.10
11497;DHT22;5805;51.542;7.230;2022-08-04T13:41:52;34.60;53.20
11497;DHT22;5805;51.542;7.230;2022-08-04T13:44:21;34.50;53.40
11497;DHT22;5805;51.542;7.230;2022-08-04T13:46:50;34.50;53.70
11497;DHT22;5805;51.542;7.230;2022-08-04T13:49:17;34.50;53.60
11497;DHT22;5805;51.542;7.230;2022-08-04T13:51:47;34.40;53.70
11497;DHT22;5805;51.542;7.230;2022-08-04T13:54:13;34.20;53.50
11497;DHT22;5805;51.542;7.230;2022-08-04T13:56:44;34.30;53.90
11497;DHT22;5805;51.542;7.230;2022-08-04T13:59:13;34.40;53.90
11497;DHT22;5805;51.542;7.230;2022-08-04T14:01:43;34.50;54.00
11497;DHT22;5805;51.542;7.230;2022-08-04T14:04:14;34.50;53.80
11497;DHT22;5805;51.542;7.230;2022-08-04T14:06:49;34.50;53.00
11497;DHT22;5805;51.542;7.230;2022-08-04T14:09:17;34.50;53.00
11497;DHT22;5805;51.542;7.230;2022-08-04T14:11:46;34.50;52.80
11497;DHT22;5805;51.542;7.230;2022-08-04T14:14:14;34.60;53.20
11497;DHT22;5805;51.542;7.230;2022-08-04T14:16:57;34.70;53.30
11497;DHT22;5805;51.542;7.230;2022-08-04T14:19:23;34.90;52.60
11497;DHT22;5805;51.542;7.230;2022-08-04T14:21:49;34.80;52.10
11497;DHT22;5805;51.542;7.230;2022-08-04T14:24:22;34.80;52.20
11497;DHT22;5805;51.542;7.230;2022-08-04T14:26:49;34.90;52.00
11497;DHT22;5805;51.542;7.230;2022-08-04T14:29:16;34.90;51.10
11497;DHT22;5805;51.542;7.230;2022-08-04T14:31:44;34.80;51.00
11497;DHT22;5805;51.542;7.230;2022-08-04T14:34:23;34.70;51.60
11497;DHT22;5805;51.542;7.230;2022-08-04T14:36:49;34.70;51.20
11497;DHT22;5805;51.542;7.230;2022-08-04T14:39:15;34.70;50.80
11497;DHT22;5805;51.542;7.230;2022-08-04T14:41:46;34.70;50.70
11497;DHT22;5805;51.542;7.230;2022-08-04T14:44:13;34.70;51.00
11497;DHT22;5805;51.542;7.230;2022-08-04T14:46:48;34.60;51.10
11497;DHT22;5805;51.542;7.230;2022-08-04T14:49:14;34.50;51.70
11497;DHT22;5805;51.542;7.230;2022-08-04T14:51:43;34.30;51.80
11497;DHT22;5805;51.542;7.230;2022-08-04T14:54:11;34.20;51.90
11497;DHT22;5805;51.542;7.230;2022-08-04T14:56:38;34.10;52.30
11497;DHT22;5805;51.542;7.230;2022-08-04T14:59:06;33.90;52.70
11497;DHT22;5805;51.542;7.230;2022-08-04T15:01:34;33.80;52.70
11497;DHT22;5805;51.542;7.230;2022-08-04T15:04:02;33.80;53.30
11497;DHT22;5805;51.542;7.230;2022-08-04T15:06:30;33.80;54.00
11497;DHT22;5805;51.542;7.230;2022-08-04T15:08:58;33.70;53.80
11497;DHT22;5805;51.542;7.230;2022-08-04T15:11:25;33.60;53.80
11497;DHT22;5805;51.542;7.230;2022-08-04T15:13:51;33.40;53.90
11497;DHT22;5805;51.542;7.230;2022-08-04T15:16:16;33.30;53.70
11497;DHT22;5805;51.542;7.230;2022-08-04T15:18:45;33.20;54.10
11497;DHT22;5805;51.542;7.230;2022-08-04T15:21:11;33.10;54.30
11497;DHT22;5805;51.542;7.230;2022-08-04T15:23:38;33.00;54.40
11497;DHT22;5805;51.542;7.230;2022-08-04T15:26:06;32.90;54.60
11497;DHT22;5805;51.542;7.230;2022-08-04T15:28:35;32.80;54.50
11497;DHT22;5805;51.542;7.230;2022-08-04T15:31:03;32.70;54.60
11497;DHT22;5805;51.542;7.230;2022-08-04T15:33:31;32.70;55.10
11497;DHT22;5805;51.542;7.230;2022-08-04T15:36:11;32.60;55.30
11497;DHT22;5805;51.542;7.230;2022-08-04T15:38:39;32.50;54.90
11497;DHT22;5805;51.542;7.230;2022-08-04T15:41:09;32.30;55.00
11497;DHT22;5805;51.542;7.230;2022-08-04T15:43:55;32.30;55.50
11497;DHT22;5805;51.542;7.230;2022-08-04T15:49:33;32.20;56.20
11497;DHT22;5805;51.542;7.230;2022-08-04T15:52:00;32.20;56.70
11497;DHT22;5805;51.542;7.230;2022-08-04T15:54:26;32.30;56.50
11497;DHT22;5805;51.542;7.230;2022-08-04T15:56:52;32.40;56.60
11497;DHT22;5805;51.542;7.230;2022-08-04T16:02:39;32.30;57.30
11497;DHT22;5805;51.542;7.230;2022-08-04T16:05:33;32.20;57.70
11497;DHT22;5805;51.542;7.230;2022-08-04T16:08:13;32.10;58.40
11497;DHT22;5805;51.542;7.230;2022-08-04T16:10:41;32.10;58.60
11497;DHT22;5805;51.542;7.230;2022-08-04T16:13:08;32.00;58.60
11497;DHT22;5805;51.542;7.230;2022-08-04T16:15:39;32.00;59.20
11497;DHT22;5805;51.542;7.230;2022-08-04T16:18:05;31.90;59.40
11497;DHT22;5805;51.542;7.230;2022-08-04T16:20:32;31.80;59.50
11497;DHT22;5805;51.542;7.230;2022-08-04T16:23:06;31.80;59.90
11497;DHT22;5805;51.542;7.230;2022-08-04T16:25:43;31.70;60.40
11497;DHT22;5805;51.542;7.230;2022-08-04T16:28:35;31.60;60.90
11497;DHT22;5805;51.542;7.230;2022-08-04T16:31:01;31.50;60.70
11497;DHT22;5805;51.542;7.230;2022-08-04T16:33:27;31.50;60.50
11497;DHT22;5805;51.542;7.230;2022-08-04T16:35:54;31.40;60.80
11497;DHT22;5805;51.542;7.230;2022-08-04T16:38:21;31.30;61.00
11497;DHT22;5805;51.542;7.230;2022-08-04T16:40:53;31.20;61.20
11497;DHT22;5805;51.542;7.230;2022-08-04T16:43:21;31.10;61.70
11497;DHT22;5805;51.542;7.230;2022-08-04T16:45:52;31.10;62.30
11497;DHT22;5805;51.542;7.230;2022-08-04T16:48:19;31.10;62.40
11497;DHT22;5805;51.542;7.230;2022-08-04T16:50:53;31.20;62.70
11497;DHT22;5805;51.542;7.230;2022-08-04T16:53:21;31.30;63.00
11497;DHT22;5805;51.542;7.230;2022-08-04T16:55:49;31.40;63.10
11497;DHT22;5805;51.542;7.230;2022-08-04T16:58:17;31.50;63.20
11497;DHT22;5805;51.542;7.230;2022-08-04T17:00:48;31.60;63.80
11497;DHT22;5805;51.542;7.230;2022-08-04T17:03:14;31.70;63.70